createdAt,value
2022-08-28T20:31:02.980Z,57.70
2022-08-28T20:33:33.813Z,57.74
2022-08-28T20:36:08.176Z,57.74
2022-08-28T20:38:47.415Z,57.95
2022-08-28T20:41:21.828Z,58.09
2022-08-28T20:43:56.167Z,58.22
2022-08-28T20:46:27.536Z,58.15
2022-08-28T20:48:58.609Z,58.26
2022-08-28T20:51:43.130Z,58.53
2022-08-28T20:54:16.967Z,58.51
2022-08-28T20:56:47.892Z,58.55
2022-08-28T20:59:19.781Z,58.65
2022-08-28T21:01:53.893Z,58.97
2022-08-28T21:04:25.469Z,59.14
2022-08-28T21:06:56.538Z,59.17
2022-08-28T21:09:58.155Z,59.41
2022-08-28T21:12:18.435Z,59.63
2022-08-28T21:14:53.222Z,59.69
2022-08-28T21:17:29.559Z,59.94
2022-08-28T21:20:04.304Z,60.11
2022-08-28T21:22:36.113Z,60.30
2022-08-28T21:25:08.160Z,60.50
2022-08-28T21:27:39.867Z,60.47
2022-08-28T21:30:12.564Z,60.44
2022-08-28T21:32:43.843Z,60.39
2022-08-28T21:35:16.105Z,60.48
2022-08-28T21:37:46.834Z,60.50
2022-08-28T21:40:18.109Z,60.69
2022-08-28T21:42:48.735Z,60.79
2022-08-28T21:45:19.414Z,60.76
2022-08-28T21:47:49.835Z,60.94
2022-08-28T21:50:22.108Z,61.11
2022-08-28T21:52:52.551Z,61.37
2022-08-28T21:55:23.145Z,61.45
2022-08-28T21:57:53.986Z,61.53
2022-08-28T22:00:25.550Z,61.49
2022-08-28T22:02:55.914Z,61.74
2022-08-28T22:05:28.814Z,61.94
2022-08-28T22:07:59.035Z,61.94
2022-08-28T22:10:29.782Z,62.12
2022-08-28T22:13:00.211Z,62.24
2022-08-28T22:15:31.760Z,62.18
2022-08-28T22:18:02.372Z,62.22
2022-08-28T22:20:32.663Z,62.06
2022-08-28T22:23:12.620Z,62.19
2022-08-28T22:25:44.629Z,62.12
2022-08-28T22:28:15.271Z,62.24
2022-08-28T22:30:45.783Z,62.54
2022-08-28T22:33:17.136Z,62.71
2022-08-28T22:35:47.612Z,62.61
2022-08-28T22:38:18.250Z,62.74
2022-08-28T22:40:49.377Z,62.71
2022-08-28T22:43:21.438Z,62.60
2022-08-28T22:45:52.138Z,62.74
2022-08-28T22:48:22.625Z,62.88
2022-08-28T22:50:53.149Z,62.74
2022-08-28T22:53:23.611Z,62.80
2022-08-28T22:55:56.412Z,63.04
2022-08-28T22:58:26.798Z,62.79
2022-08-28T23:00:58.668Z,62.94
2022-08-28T23:03:29.681Z,63.06
2022-08-28T23:06:00.459Z,62.90
2022-08-28T23:08:34.008Z,62.96
2022-08-28T23:11:05.261Z,63.05
2022-08-28T23:13:36.372Z,63.03
2022-08-28T23:16:08.293Z,62.99
2022-08-28T23:19:06.650Z,62.91
2022-08-28T23:21:30.003Z,62.93
2022-08-28T23:24:00.420Z,62.94
2022-08-28T23:26:31.841Z,62.89
2022-08-28T23:29:02.710Z,63.06
2022-08-28T23:31:33.257Z,63.05
2022-08-28T23:34:05.002Z,63.23
2022-08-28T23:36:36.749Z,63.12
2022-08-28T23:39:09.719Z,63.13
2022-08-28T23:41:40.369Z,63.09
2022-08-28T23:44:11.718Z,63.15
2022-08-28T23:46:42.425Z,63.39
2022-08-28T23:49:13.966Z,63.50
2022-08-28T23:51:48.412Z,63.64
2022-08-28T23:54:22.870Z,63.64
2022-08-28T23:56:53.061Z,63.55
2022-08-28T23:59:23.654Z,63.52
